sensor_id;sensor_type;location;lat;lon;timestamp;P1;durP1;ratioP1;P2;durP2;ratioP2
6973;SDS011;3527;52.376;8.990;2022-10-04T00:00:40;14.10;;;8.53;;
6973;SDS011;3527;52.376;8.990;2022-10-04T00:03:33;13.30;;;8.07;;
6973;SDS011;3527;52.376;8.990;2022-10-04T00:06:22;14.57;;;7.83;;
6973;SDS011;3527;52.376;8.990;2022-10-04T00:09:12;11.30;;;7.30;;
6973;SDS011;3527;52.376;8.990;2022-10-04T00:12:04;12.33;;;7.47;;
6973;SDS011;3527;52.376;8.990;2022-10-04T00:14:53;11.97;;;7.37;;
6973;SDS011;3527;52.376;8.990;2022-10-04T00:17:44;13.17;;;6.37;;
6973;SDS011;3527;52.376;8.990;2022-10-04T00:20:57;11.90;;;7.63;;
6973;SDS011;3527;52.376;8.990;2022-10-04T00:23:47;13.37;;;6.83;;
6973;SDS011;3527;52.376;8.990;2022-10-04T00:32:23;14.57;;;6.50;;
6973;SDS011;3527;52.376;8.990;2022-10-04T00:35:44;12.97;;;7.23;;
6973;SDS011;3527;52.376;8.990;2022-10-04T00:38:32;13.40;;;6.57;;
6973;SDS011;3527;52.376;8.990;2022-10-04T00:41:19;11.53;;;6.67;;
6973;SDS011;3527;52.376;8.990;2022-10-04T00:44:09;8.97;;;6.30;;
6973;SDS011;3527;52.376;8.990;2022-10-04T00:50:41;10.40;;;7.00;;
6973;SDS011;3527;52.376;8.990;2022-10-04T00:53:38;10.50;;;6.43;;
6973;SDS011;3527;52.376;8.990;2022-10-04T00:59:34;11.53;;;6.20;;
6973;SDS011;3527;52.376;8.990;2022-10-04T01:05:24;14.07;;;6.80;;
6973;SDS011;3527;52.376;8.990;2022-10-04T01:08:27;14.57;;;6.70;;
6973;SDS011;3527;52.376;8.990;2022-10-04T01:11:25;13.23;;;6.93;;
6973;SDS011;3527;52.376;8.990;2022-10-04T01:14:23;9.57;;;6.17;;
6973;SDS011;3527;52.376;8.990;2022-10-04T01:17:17;10.50;;;6.07;;
6973;SDS011;3527;52.376;8.990;2022-10-04T01:20:23;11.27;;;6.67;;
6973;SDS011;3527;52.376;8.990;2022-10-04T01:23:34;11.30;;;7.03;;
6973;SDS011;3527;52.376;8.990;2022-10-04T01:29:22;14.33;;;7.20;;
6973;SDS011;3527;52.376;8.990;2022-10-04T01:32:11;10.63;;;6.30;;
6973;SDS011;3527;52.376;8.990;2022-10-04T01:34:58;16.53;;;6.50;;
6973;SDS011;3527;52.376;8.990;2022-10-04T01:37:45;14.37;;;6.47;;
6973;SDS011;3527;52.376;8.990;2022-10-04T01:40:33;12.27;;;6.20;;
6973;SDS011;3527;52.376;8.990;2022-10-04T01:43:23;13.83;;;6.73;;
6973;SDS011;3527;52.376;8.990;2022-10-04T01:46:28;14.10;;;6.67;;
6973;SDS011;3527;52.376;8.990;2022-10-04T01:49:19;14.63;;;6.63;;
6973;SDS011;3527;52.376;8.990;2022-10-04T01:52:17;16.30;;;7.20;;
6973;SDS011;3527;52.376;8.990;2022-10-04T01:55:15;10.33;;;6.80;;
6973;SDS011;3527;52.376;8.990;2022-10-04T01:58:13;13.37;;;6.70;;
6973;SDS011;3527;52.376;8.990;2022-10-04T02:01:08;11.47;;;5.80;;
6973;SDS011;3527;52.376;8.990;2022-10-04T02:04:03;12.57;;;7.00;;
6973;SDS011;3527;52.376;8.990;2022-10-04T02:07:11;11.87;;;7.27;;
6973;SDS011;3527;52.376;8.990;2022-10-04T02:10:02;13.93;;;6.77;;
6973;SDS011;3527;52.376;8.990;2022-10-04T02:12:52;10.17;;;6.60;;
6973;SDS011;3527;52.376;8.990;2022-10-04T02:15:40;12.37;;;6.90;;
6973;SDS011;3527;52.376;8.990;2022-10-04T02:18:28;12.93;;;6.30;;
6973;SDS011;3527;52.376;8.990;2022-10-04T02:21:19;12.40;;;6.67;;
6973;SDS011;3527;52.376;8.990;2022-10-04T02:24:09;15.73;;;6.80;;
6973;SDS011;3527;52.376;8.990;2022-10-04T02:26:57;10.13;;;6.00;;
6973;SDS011;3527;52.376;8.990;2022-10-04T02:29:45;14.90;;;6.63;;
6973;SDS011;3527;52.376;8.990;2022-10-04T02:32:32;12.83;;;7.33;;
6973;SDS011;3527;52.376;8.990;2022-10-04T02:35:44;12.93;;;7.00;;
6973;SDS011;3527;52.376;8.990;2022-10-04T02:38:34;16.70;;;8.17;;
6973;SDS011;3527;52.376;8.990;2022-10-04T02:41:35;15.83;;;7.83;;
6973;SDS011;3527;52.376;8.990;2022-10-04T02:44:30;13.80;;;8.37;;
6973;SDS011;3527;52.376;8.990;2022-10-04T02:47:28;15.43;;;8.30;;
6973;SDS011;3527;52.376;8.990;2022-10-04T02:50:27;14.27;;;8.20;;
6973;SDS011;3527;52.376;8.990;2022-10-04T02:56:38;16.13;;;8.30;;
6973;SDS011;3527;52.376;8.990;2022-10-04T02:59:25;13.47;;;7.43;;
6973;SDS011;3527;52.376;8.990;2022-10-04T03:02:25;14.13;;;7.87;;
6973;SDS011;3527;52.376;8.990;2022-10-04T03:05:15;14.97;;;7.80;;
6973;SDS011;3527;52.376;8.990;2022-10-04T03:08:03;15.93;;;7.70;;
6973;SDS011;3527;52.376;8.990;2022-10-04T03:10:51;18.33;;;8.23;;
6973;SDS011;3527;52.376;8.990;2022-10-04T03:13:38;14.47;;;7.93;;
6973;SDS011;3527;52.376;8.990;2022-10-04T03:16:32;20.63;;;9.93;;
6973;SDS011;3527;52.376;8.990;2022-10-04T03:19:22;18.07;;;10.17;;
6973;SDS011;3527;52.376;8.990;2022-10-04T03:22:12;15.47;;;7.93;;
6973;SDS011;3527;52.376;8.990;2022-10-04T03:24:59;15.00;;;7.93;;
6973;SDS011;3527;52.376;8.990;2022-10-04T03:27:47;15.77;;;7.60;;
6973;SDS011;3527;52.376;8.990;2022-10-04T03:30:36;11.53;;;6.87;;
6973;SDS011;3527;52.376;8.990;2022-10-04T03:33:28;15.73;;;8.27;;
6973;SDS011;3527;52.376;8.990;2022-10-04T03:36:16;16.00;;;7.60;;
6973;SDS011;3527;52.376;8.990;2022-10-04T03:39:05;15.47;;;7.67;;
6973;SDS011;3527;52.376;8.990;2022-10-04T03:41:56;21.37;;;7.67;;
6973;SDS011;3527;52.376;8.990;2022-10-04T03:44:44;14.20;;;7.50;;
6973;SDS011;3527;52.376;8.990;2022-10-04T03:47:34;13.07;;;7.53;;
6973;SDS011;3527;52.376;8.990;2022-10-04T03:50:25;14.00;;;7.10;;
6973;SDS011;3527;52.376;8.990;2022-10-04T03:56:21;13.17;;;7.27;;
6973;SDS011;3527;52.376;8.990;2022-10-04T03:59:12;12.93;;;6.63;;
6973;SDS011;3527;52.376;8.990;2022-10-04T04:08:02;12.40;;;7.33;;
6973;SDS011;3527;52.376;8.990;2022-10-04T04:10:58;16.90;;;8.00;;
6973;SDS011;3527;52.376;8.990;2022-10-04T04:16:39;15.67;;;9.20;;
6973;SDS011;3527;52.376;8.990;2022-10-04T04:19:26;14.27;;;9.20;;
6973;SDS011;3527;52.376;8.990;2022-10-04T04:22:14;13.40;;;9.57;;
6973;SDS011;3527;52.376;8.990;2022-10-04T04:25:04;19.20;;;9.27;;
6973;SDS011;3527;52.376;8.990;2022-10-04T04:31:18;14.77;;;10.50;;
6973;SDS011;3527;52.376;8.990;2022-10-04T04:34:17;17.97;;;10.23;;
6973;SDS011;3527;52.376;8.990;2022-10-04T04:37:08;20.53;;;11.20;;
6973;SDS011;3527;52.376;8.990;2022-10-04T04:39:56;15.70;;;11.23;;
6973;SDS011;3527;52.376;8.990;2022-10-04T04:43:04;18.17;;;10.07;;
6973;SDS011;3527;52.376;8.990;2022-10-04T04:45:51;19.27;;;9.97;;
6973;SDS011;3527;52.376;8.990;2022-10-04T04:49:03;16.70;;;10.07;;
6973;SDS011;3527;52.376;8.990;2022-10-04T04:51:51;18.60;;;10.23;;
6973;SDS011;3527;52.376;8.990;2022-10-04T04:54:38;21.57;;;10.47;;
6973;SDS011;3527;52.376;8.990;2022-10-04T04:57:25;19.10;;;10.53;;
6973;SDS011;3527;52.376;8.990;2022-10-04T05:00:17;16.77;;;10.77;;
6973;SDS011;3527;52.376;8.990;2022-10-04T05:03:06;15.47;;;11.13;;
6973;SDS011;3527;52.376;8.990;2022-10-04T05:06:04;17.97;;;11.40;;
6973;SDS011;3527;52.376;8.990;2022-10-04T05:12:30;16.80;;;10.17;;
6973;SDS011;3527;52.376;8.990;2022-10-04T05:15:18;17.43;;;10.50;;
6973;SDS011;3527;52.376;8.990;2022-10-04T05:18:26;18.23;;;9.53;;
6973;SDS011;3527;52.376;8.990;2022-10-04T05:21:22;19.70;;;10.27;;
6973;SDS011;3527;52.376;8.990;2022-10-04T05:24:20;13.20;;;9.07;;
6973;SDS011;3527;52.376;8.990;2022-10-04T05:27:26;13.00;;;9.03;;
6973;SDS011;3527;52.376;8.990;2022-10-04T05:30:32;14.93;;;8.47;;
6973;SDS011;3527;52.376;8.990;2022-10-04T05:33:37;14.23;;;8.27;;
6973;SDS011;3527;52.376;8.990;2022-10-04T05:39:38;13.27;;;8.17;;
6973;SDS011;3527;52.376;8.990;2022-10-04T05:42:35;11.87;;;7.37;;
6973;SDS011;3527;52.376;8.990;2022-10-04T05:45:30;17.10;;;8.87;;
6973;SDS011;3527;52.376;8.990;2022-10-04T05:48:17;15.77;;;7.93;;
6973;SDS011;3527;52.376;8.990;2022-10-04T05:51:18;14.80;;;7.87;;
6973;SDS011;3527;52.376;8.990;2022-10-04T05:54:13;10.87;;;7.50;;
6973;SDS011;3527;52.376;8.990;2022-10-04T05:57:10;12.67;;;8.07;;
6973;SDS011;3527;52.376;8.990;2022-10-04T06:00:10;17.57;;;7.63;;
6973;SDS011;3527;52.376;8.990;2022-10-04T06:06:34;16.43;;;7.43;;
6973;SDS011;3527;52.376;8.990;2022-10-04T06:09:34;14.13;;;7.50;;
6973;SDS011;3527;52.376;8.990;2022-10-04T06:15:34;11.50;;;6.43;;
6973;SDS011;3527;52.376;8.990;2022-10-04T06:21:27;8.93;;;6.47;;
6973;SDS011;3527;52.376;8.990;2022-10-04T06:24:20;13.40;;;6.43;;
6973;SDS011;3527;52.376;8.990;2022-10-04T06:27:21;12.47;;;6.70;;
6973;SDS011;3527;52.376;8.990;2022-10-04T06:30:22;12.67;;;7.20;;
6973;SDS011;3527;52.376;8.990;2022-10-04T07:10:28;11.53;;;6.00;;
6973;SDS011;3527;52.376;8.990;2022-10-04T07:19:38;11.50;;;5.83;;
6973;SDS011;3527;52.376;8.990;2022-10-04T07:22:35;10.13;;;6.10;;
6973;SDS011;3527;52.376;8.990;2022-10-04T07:25:40;8.00;;;5.50;;
6973;SDS011;3527;52.376;8.990;2022-10-04T07:28:38;10.50;;;5.77;;
6973;SDS011;3527;52.376;8.990;2022-10-04T07:31:51;12.57;;;5.27;;
6973;SDS011;3527;52.376;8.990;2022-10-04T07:34:56;10.67;;;5.03;;
6973;SDS011;3527;52.376;8.990;2022-10-04T07:37:59;13.87;;;5.10;;
6973;SDS011;3527;52.376;8.990;2022-10-04T07:44:02;8.10;;;4.97;;
6973;SDS011;3527;52.376;8.990;2022-10-04T07:47:03;10.73;;;4.80;;
6973;SDS011;3527;52.376;8.990;2022-10-04T07:50:21;12.00;;;4.50;;
6973;SDS011;3527;52.376;8.990;2022-10-04T07:53:17;9.50;;;5.33;;
6973;SDS011;3527;52.376;8.990;2022-10-04T07:59:20;10.60;;;4.50;;
6973;SDS011;3527;52.376;8.990;2022-10-04T08:05:34;10.23;;;4.63;;
6973;SDS011;3527;52.376;8.990;2022-10-04T08:21:15;8.77;;;5.23;;
6973;SDS011;3527;52.376;8.990;2022-10-04T08:30:14;11.17;;;4.97;;
6973;SDS011;3527;52.376;8.990;2022-10-04T08:55:18;9.43;;;4.80;;
6973;SDS011;3527;52.376;8.990;2022-10-04T09:08:21;8.57;;;4.70;;
6973;SDS011;3527;52.376;8.990;2022-10-04T09:11:21;11.73;;;4.67;;
6973;SDS011;3527;52.376;8.990;2022-10-04T09:14:20;8.73;;;4.67;;
6973;SDS011;3527;52.376;8.990;2022-10-04T09:17:41;10.70;;;4.43;;
6973;SDS011;3527;52.376;8.990;2022-10-04T09:20:59;11.10;;;4.60;;
6973;SDS011;3527;52.376;8.990;2022-10-04T09:24:19;12.10;;;4.60;;
6973;SDS011;3527;52.376;8.990;2022-10-04T09:37:32;10.33;;;4.00;;
6973;SDS011;3527;52.376;8.990;2022-10-04T10:05:18;9.87;;;4.33;;
6973;SDS011;3527;52.376;8.990;2022-10-04T10:14:45;7.67;;;3.40;;
6973;SDS011;3527;52.376;8.990;2022-10-04T10:18:07;8.03;;;4.37;;
6973;SDS011;3527;52.376;8.990;2022-10-04T10:37:37;7.30;;;2.83;;
6973;SDS011;3527;52.376;8.990;2022-10-04T10:41:10;5.37;;;2.60;;
6973;SDS011;3527;52.376;8.990;2022-10-04T10:47:15;6.13;;;2.67;;
6973;SDS011;3527;52.376;8.990;2022-10-04T11:06:37;5.63;;;2.60;;
6973;SDS011;3527;52.376;8.990;2022-10-04T11:31:25;8.97;;;2.83;;
6973;SDS011;3527;52.376;8.990;2022-10-04T12:06:22;7.93;;;2.40;;
6973;SDS011;3527;52.376;8.990;2022-10-04T12:21:59;6.17;;;2.30;;
6973;SDS011;3527;52.376;8.990;2022-10-04T12:37:09;6.60;;;2.30;;
6973;SDS011;3527;52.376;8.990;2022-10-04T12:54:55;4.40;;;2.40;;
6973;SDS011;3527;52.376;8.990;2022-10-04T12:58:48;5.53;;;2.10;;
6973;SDS011;3527;52.376;8.990;2022-10-04T13:04:38;3.77;;;2.27;;
6973;SDS011;3527;52.376;8.990;2022-10-04T13:11:23;5.50;;;2.07;;
6973;SDS011;3527;52.376;8.990;2022-10-04T13:14:33;3.93;;;2.43;;
6973;SDS011;3527;52.376;8.990;2022-10-04T13:56:54;7.47;;;2.60;;
6973;SDS011;3527;52.376;8.990;2022-10-04T13:59:58;5.73;;;2.13;;
6973;SDS011;3527;52.376;8.990;2022-10-04T14:51:35;5.27;;;2.20;;
6973;SDS011;3527;52.376;8.990;2022-10-04T14:54:52;4.60;;;2.60;;
6973;SDS011;3527;52.376;8.990;2022-10-04T14:57:57;3.90;;;2.40;;
6973;SDS011;3527;52.376;8.990;2022-10-04T15:03:52;4.63;;;2.00;;
6973;SDS011;3527;52.376;8.990;2022-10-04T15:07:00;4.93;;;2.10;;
6973;SDS011;3527;52.376;8.990;2022-10-04T15:10:36;3.17;;;2.10;;
6973;SDS011;3527;52.376;8.990;2022-10-04T15:22:21;3.90;;;2.10;;
6973;SDS011;3527;52.376;8.990;2022-10-04T15:25:35;4.57;;;2.23;;
6973;SDS011;3527;52.376;8.990;2022-10-04T15:35:23;7.20;;;2.30;;
6973;SDS011;3527;52.376;8.990;2022-10-04T15:41:50;5.83;;;2.63;;
6973;SDS011;3527;52.376;8.990;2022-10-04T15:51:02;3.23;;;2.17;;
6973;SDS011;3527;52.376;8.990;2022-10-04T16:22:07;4.43;;;2.60;;
6973;SDS011;3527;52.376;8.990;2022-10-04T16:25:37;3.93;;;2.20;;
6973;SDS011;3527;52.376;8.990;2022-10-04T16:28:19;4.57;;;2.20;;
6973;SDS011;3527;52.376;8.990;2022-10-04T16:31:20;5.50;;;2.40;;
6973;SDS011;3527;52.376;8.990;2022-10-04T16:42:58;4.27;;;2.40;;
6973;SDS011;3527;52.376;8.990;2022-10-04T16:46:05;5.70;;;3.20;;
6973;SDS011;3527;52.376;8.990;2022-10-04T16:55:55;9.50;;;3.37;;
6973;SDS011;3527;52.376;8.990;2022-10-04T16:58:48;5.93;;;3.23;;
6973;SDS011;3527;52.376;8.990;2022-10-04T17:02:29;8.03;;;3.80;;
6973;SDS011;3527;52.376;8.990;2022-10-04T17:05:20;8.37;;;3.93;;
6973;SDS011;3527;52.376;8.990;2022-10-04T17:08:45;5.83;;;3.73;;
6973;SDS011;3527;52.376;8.990;2022-10-04T17:21:19;6.40;;;3.70;;
6973;SDS011;3527;52.376;8.990;2022-10-04T17:27:24;7.47;;;4.30;;
6973;SDS011;3527;52.376;8.990;2022-10-04T17:30:40;10.40;;;4.50;;
6973;SDS011;3527;52.376;8.990;2022-10-04T17:37:03;8.57;;;4.37;;
6973;SDS011;3527;52.376;8.990;2022-10-04T17:43:05;5.87;;;4.17;;
6973;SDS011;3527;52.376;8.990;2022-10-04T17:49:03;6.93;;;4.77;;
6973;SDS011;3527;52.376;8.990;2022-10-04T17:52:42;8.03;;;4.60;;
6973;SDS011;3527;52.376;8.990;2022-10-04T17:55:55;9.53;;;5.17;;
6973;SDS011;3527;52.376;8.990;2022-10-04T17:58:48;8.00;;;4.90;;
6973;SDS011;3527;52.376;8.990;2022-10-04T18:01:50;8.63;;;4.77;;
6973;SDS011;3527;52.376;8.990;2022-10-04T18:04:50;11.00;;;5.00;;
6973;SDS011;3527;52.376;8.990;2022-10-04T18:11:40;7.17;;;5.33;;
6973;SDS011;3527;52.376;8.990;2022-10-04T18:17:42;8.83;;;6.57;;
6973;SDS011;3527;52.376;8.990;2022-10-04T18:20:39;8.97;;;6.00;;
6973;SDS011;3527;52.376;8.990;2022-10-04T18:27:23;11.90;;;6.67;;
6973;SDS011;3527;52.376;8.990;2022-10-04T18:30:13;11.87;;;7.87;;
6973;SDS011;3527;52.376;8.990;2022-10-04T18:33:04;12.50;;;7.80;;
6973;SDS011;3527;52.376;8.990;2022-10-04T18:42:06;8.63;;;6.07;;
6973;SDS011;3527;52.376;8.990;2022-10-04T18:48:15;11.83;;;7.07;;
6973;SDS011;3527;52.376;8.990;2022-10-04T18:52:10;8.37;;;5.90;;
6973;SDS011;3527;52.376;8.990;2022-10-04T18:57:45;11.53;;;6.97;;
6973;SDS011;3527;52.376;8.990;2022-10-04T19:00:53;10.17;;;7.13;;
6973;SDS011;3527;52.376;8.990;2022-10-04T19:04:16;10.20;;;7.27;;
6973;SDS011;3527;52.376;8.990;2022-10-04T19:10:26;9.77;;;6.93;;
6973;SDS011;3527;52.376;8.990;2022-10-04T19:19:30;9.00;;;6.07;;
6973;SDS011;3527;52.376;8.990;2022-10-04T19:22:44;11.90;;;6.83;;
6973;SDS011;3527;52.376;8.990;2022-10-04T19:35:50;13.60;;;7.87;;
6973;SDS011;3527;52.376;8.990;2022-10-04T19:48:20;11.10;;;7.50;;
6973;SDS011;3527;52.376;8.990;2022-10-04T19:51:15;10.97;;;7.13;;
6973;SDS011;3527;52.376;8.990;2022-10-04T19:54:25;10.47;;;7.53;;
6973;SDS011;3527;52.376;8.990;2022-10-04T19:57:19;14.07;;;7.10;;
6973;SDS011;3527;52.376;8.990;2022-10-04T20:00:15;11.90;;;7.93;;
6973;SDS011;3527;52.376;8.990;2022-10-04T20:03:09;15.60;;;7.90;;
6973;SDS011;3527;52.376;8.990;2022-10-04T20:05:58;10.10;;;7.67;;
6973;SDS011;3527;52.376;8.990;2022-10-04T20:08:55;12.53;;;8.00;;
6973;SDS011;3527;52.376;8.990;2022-10-04T20:11:49;10.57;;;7.43;;
6973;SDS011;3527;52.376;8.990;2022-10-04T20:17:29;10.00;;;7.63;;
6973;SDS011;3527;52.376;8.990;2022-10-04T20:26:40;10.50;;;7.73;;
6973;SDS011;3527;52.376;8.990;2022-10-04T20:36:05;11.03;;;7.43;;
6973;SDS011;3527;52.376;8.990;2022-10-04T20:38:52;13.30;;;7.40;;
6973;SDS011;3527;52.376;8.990;2022-10-04T20:41:40;12.93;;;7.63;;
6973;SDS011;3527;52.376;8.990;2022-10-04T20:44:51;10.67;;;7.43;;
6973;SDS011;3527;52.376;8.990;2022-10-04T20:47:44;13.57;;;7.40;;
6973;SDS011;3527;52.376;8.990;2022-10-04T20:50:34;11.83;;;7.07;;
6973;SDS011;3527;52.376;8.990;2022-10-04T20:53:29;12.83;;;7.30;;
6973;SDS011;3527;52.376;8.990;2022-10-04T20:59:12;12.13;;;7.60;;
6973;SDS011;3527;52.376;8.990;2022-10-04T21:02:01;12.47;;;8.13;;
6973;SDS011;3527;52.376;8.990;2022-10-04T21:05:10;10.30;;;7.40;;
6973;SDS011;3527;52.376;8.990;2022-10-04T21:08:11;13.63;;;8.47;;
6973;SDS011;3527;52.376;8.990;2022-10-04T21:11:07;13.23;;;7.80;;
6973;SDS011;3527;52.376;8.990;2022-10-04T21:14:04;14.20;;;7.23;;
6973;SDS011;3527;52.376;8.990;2022-10-04T21:16:55;10.63;;;7.63;;
6973;SDS011;3527;52.376;8.990;2022-10-04T21:19:48;12.43;;;7.80;;
6973;SDS011;3527;52.376;8.990;2022-10-04T21:22:36;9.73;;;7.03;;
6973;SDS011;3527;52.376;8.990;2022-10-04T21:25:28;12.43;;;7.77;;
6973;SDS011;3527;52.376;8.990;2022-10-04T21:28:23;13.73;;;7.33;;
6973;SDS011;3527;52.376;8.990;2022-10-04T21:31:16;11.93;;;7.07;;
6973;SDS011;3527;52.376;8.990;2022-10-04T21:34:03;12.03;;;6.90;;
6973;SDS011;3527;52.376;8.990;2022-10-04T21:36:50;9.10;;;6.10;;
6973;SDS011;3527;52.376;8.990;2022-10-04T21:39:38;9.40;;;5.83;;
6973;SDS011;3527;52.376;8.990;2022-10-04T21:42:25;8.80;;;6.10;;
6973;SDS011;3527;52.376;8.990;2022-10-04T21:45:12;8.70;;;5.97;;
6973;SDS011;3527;52.376;8.990;2022-10-04T21:47:59;8.87;;;5.63;;
6973;SDS011;3527;52.376;8.990;2022-10-04T21:50:47;9.47;;;6.20;;
6973;SDS011;3527;52.376;8.990;2022-10-04T21:53:35;8.80;;;5.97;;
6973;SDS011;3527;52.376;8.990;2022-10-04T21:56:22;8.33;;;5.43;;
6973;SDS011;3527;52.376;8.990;2022-10-04T21:59:09;10.13;;;5.80;;
6973;SDS011;3527;52.376;8.990;2022-10-04T22:01:56;11.07;;;5.87;;
6973;SDS011;3527;52.376;8.990;2022-10-04T22:04:43;7.47;;;5.80;;
6973;SDS011;3527;52.376;8.990;2022-10-04T22:07:30;9.90;;;5.43;;
6973;SDS011;3527;52.376;8.990;2022-10-04T22:10:17;10.60;;;5.40;;
6973;SDS011;3527;52.376;8.990;2022-10-04T22:13:04;11.03;;;5.57;;
6973;SDS011;3527;52.376;8.990;2022-10-04T22:15:52;8.63;;;6.10;;
6973;SDS011;3527;52.376;8.990;2022-10-04T22:18:39;9.17;;;5.40;;
6973;SDS011;3527;52.376;8.990;2022-10-04T22:21:26;11.40;;;6.20;;
6973;SDS011;3527;52.376;8.990;2022-10-04T22:24:15;11.87;;;5.63;;
6973;SDS011;3527;52.376;8.990;2022-10-04T22:27:09;11.70;;;6.27;;
6973;SDS011;3527;52.376;8.990;2022-10-04T22:30:00;10.53;;;5.70;;
6973;SDS011;3527;52.376;8.990;2022-10-04T22:32:47;11.00;;;5.57;;
6973;SDS011;3527;52.376;8.990;2022-10-04T22:35:35;13.13;;;6.03;;
6973;SDS011;3527;52.376;8.990;2022-10-04T22:38:22;9.87;;;5.67;;
6973;SDS011;3527;52.376;8.990;2022-10-04T22:41:13;10.67;;;6.27;;
6973;SDS011;3527;52.376;8.990;2022-10-04T22:44:20;9.87;;;5.60;;
6973;SDS011;3527;52.376;8.990;2022-10-04T22:47:13;9.80;;;5.93;;
6973;SDS011;3527;52.376;8.990;2022-10-04T22:50:01;11.00;;;6.20;;
6973;SDS011;3527;52.376;8.990;2022-10-04T22:52:48;11.43;;;6.20;;
6973;SDS011;3527;52.376;8.990;2022-10-04T22:55:35;8.63;;;6.43;;
6973;SDS011;3527;52.376;8.990;2022-10-04T22:58:22;12.93;;;6.60;;
6973;SDS011;3527;52.376;8.990;2022-10-04T23:01:11;12.13;;;7.37;;
6973;SDS011;3527;52.376;8.990;2022-10-04T23:04:01;10.53;;;6.77;;
6973;SDS011;3527;52.376;8.990;2022-10-04T23:06:51;9.47;;;6.30;;
6973;SDS011;3527;52.376;8.990;2022-10-04T23:09:38;12.47;;;7.20;;
6973;SDS011;3527;52.376;8.990;2022-10-04T23:12:26;12.37;;;7.03;;
6973;SDS011;3527;52.376;8.990;2022-10-04T23:15:14;12.10;;;6.53;;
6973;SDS011;3527;52.376;8.990;2022-10-04T23:18:10;10.03;;;6.60;;
6973;SDS011;3527;52.376;8.990;2022-10-04T23:21:01;11.10;;;6.17;;
6973;SDS011;3527;52.376;8.990;2022-10-04T23:23:49;13.57;;;6.47;;
6973;SDS011;3527;52.376;8.990;2022-10-04T23:26:38;10.67;;;6.50;;
6973;SDS011;3527;52.376;8.990;2022-10-04T23:29:28;9.10;;;6.00;;
6973;SDS011;3527;52.376;8.990;2022-10-04T23:32:17;8.10;;;5.67;;
6973;SDS011;3527;52.376;8.990;2022-10-04T23:35:05;7.47;;;5.80;;
6973;SDS011;3527;52.376;8.990;2022-10-04T23:38:01;10.03;;;6.20;;
6973;SDS011;3527;52.376;8.990;2022-10-04T23:40:52;10.70;;;6.00;;
6973;SDS011;3527;52.376;8.990;2022-10-04T23:43:39;7.47;;;5.70;;
6973;SDS011;3527;52.376;8.990;2022-10-04T23:46:26;8.30;;;5.60;;
6973;SDS011;3527;52.376;8.990;2022-10-04T23:49:15;7.20;;;5.90;;
6973;SDS011;3527;52.376;8.990;2022-10-04T23:52:07;11.37;;;6.03;;
6973;SDS011;3527;52.376;8.990;2022-10-04T23:54:59;6.83;;;5.20;;
6973;SDS011;3527;52.376;8.990;2022-10-04T23:57:48;8.87;;;5.93;;
